createdAt,value
2022-08-18T00:00:33.114Z,11.50
2022-08-18T00:01:28.748Z,13.00
2022-08-18T00:02:28.891Z,11.40
2022-08-18T00:03:53.243Z,12.90
2022-08-18T00:04:24.262Z,9.80
2022-08-18T00:05:11.364Z,10.50
2022-08-18T00:06:05.643Z,11.40
2022-08-18T00:07:00.821Z,11.90
2022-08-18T00:07:57.198Z,12.60
2022-08-18T00:08:53.132Z,11.10
2022-08-18T00:09:48.352Z,12.60
2022-08-18T00:10:43.698Z,10.30
2022-08-18T00:11:40.432Z,9.50
2022-08-18T00:12:34.689Z,11.20
2022-08-18T00:13:29.973Z,11.50
2022-08-18T00:14:25.866Z,12.00
2022-08-18T00:15:20.994Z,10.10
2022-08-18T00:16:16.437Z,11.50
2022-08-18T00:17:12.174Z,10.90
2022-08-18T00:18:07.474Z,10.60
2022-08-18T00:19:07.083Z,11.10
2022-08-18T00:20:00.138Z,11.30
2022-08-18T00:20:54.240Z,17.90
2022-08-18T00:21:50.081Z,13.60
2022-08-18T00:22:45.378Z,10.30
2022-08-18T00:23:40.599Z,10.60
2022-08-18T00:24:35.776Z,11.50
2022-08-18T00:25:31.558Z,11.60
2022-08-18T00:26:26.706Z,10.90
2022-08-18T00:27:23.534Z,10.40
2022-08-18T00:28:17.815Z,10.20
2022-08-18T00:29:12.986Z,10.40
2022-08-18T00:30:08.150Z,10.60
2022-08-18T00:31:04.660Z,11.20
2022-08-18T00:31:59.984Z,12.30
2022-08-18T00:32:55.905Z,10.60
2022-08-18T00:33:51.035Z,14.10
2022-08-18T00:34:46.226Z,12.50
2022-08-18T00:35:42.093Z,10.50
2022-08-18T00:36:37.307Z,11.10
2022-08-18T00:37:33.034Z,13.60
2022-08-18T00:38:28.184Z,12.60
2022-08-18T00:39:23.514Z,13.80
2022-08-18T00:40:18.732Z,11.90
2022-08-18T00:41:13.892Z,11.00
2022-08-18T00:42:08.904Z,12.80
2022-08-18T00:43:03.942Z,12.10
2022-08-18T00:43:59.002Z,11.20
2022-08-18T00:44:58.364Z,11.50
2022-08-18T00:45:53.656Z,11.50
2022-08-18T00:46:48.988Z,10.90
2022-08-18T00:47:44.269Z,12.20
2022-08-18T00:48:40.401Z,12.70
2022-08-18T00:49:36.578Z,12.80
2022-08-18T00:50:30.841Z,12.20
2022-08-18T00:51:29.923Z,13.00
2022-08-18T00:52:25.073Z,12.10
2022-08-18T00:53:20.307Z,13.20
2022-08-18T00:54:15.443Z,13.60
2022-08-18T00:55:10.755Z,14.60
2022-08-18T00:56:05.939Z,14.90
2022-08-18T00:57:02.068Z,15.50
2022-08-18T00:57:57.382Z,16.50
2022-08-18T00:58:52.604Z,17.10
2022-08-18T00:59:47.741Z,15.20
2022-08-18T01:00:42.792Z,15.80
2022-08-18T01:01:37.837Z,16.30
2022-08-18T01:02:32.877Z,14.10
2022-08-18T01:03:28.064Z,18.00
2022-08-18T01:04:23.118Z,15.40
2022-08-18T01:05:18.151Z,15.10
2022-08-18T01:06:13.200Z,13.50
2022-08-18T01:07:08.211Z,14.10
2022-08-18T01:08:03.244Z,16.70
2022-08-18T01:08:58.293Z,13.60
2022-08-18T01:09:53.304Z,16.10
2022-08-18T01:10:48.371Z,14.70
2022-08-18T01:11:43.375Z,15.00
2022-08-18T01:12:45.377Z,13.60
2022-08-18T01:13:34.504Z,18.80
2022-08-18T01:14:29.387Z,16.10
2022-08-18T01:15:29.235Z,16.40
2022-08-18T01:16:20.737Z,16.90
2022-08-18T01:17:14.978Z,16.40
2022-08-18T01:18:10.153Z,20.50
2022-08-18T01:19:05.293Z,17.30
2022-08-18T01:20:00.485Z,17.10
2022-08-18T01:20:55.653Z,16.10
2022-08-18T01:21:51.065Z,16.90
2022-08-18T01:22:46.099Z,14.70
2022-08-18T01:23:44.924Z,16.80
2022-08-18T01:24:40.060Z,17.10
2022-08-18T01:25:35.213Z,19.40
2022-08-18T01:26:30.482Z,18.00
2022-08-18T01:27:25.679Z,15.60
2022-08-18T01:28:20.878Z,17.20
2022-08-18T01:29:19.052Z,15.50
2022-08-18T01:30:11.029Z,16.90
2022-08-18T01:31:06.100Z,15.10
2022-08-18T01:32:04.410Z,18.10
2022-08-18T01:32:59.722Z,15.80
2022-08-18T01:33:55.003Z,17.00
2022-08-18T01:34:50.739Z,14.30
2022-08-18T01:35:45.935Z,18.80
2022-08-18T01:36:41.078Z,16.00
2022-08-18T01:37:37.515Z,17.30
2022-08-18T01:38:32.725Z,20.30
2022-08-18T01:41:11.134Z,16.60
2022-08-18T01:41:22.377Z,16.00
2022-08-18T01:41:28.363Z,15.10
2022-08-18T01:42:16.687Z,16.50
2022-08-18T01:43:11.488Z,18.40
2022-08-18T01:44:06.648Z,17.70
2022-08-18T01:45:02.229Z,14.80
2022-08-18T01:45:57.788Z,15.80
2022-08-18T01:46:53.103Z,16.50
2022-08-18T01:47:48.891Z,16.50
2022-08-18T01:48:44.148Z,16.00
2022-08-18T01:49:39.323Z,17.40
2022-08-18T01:50:35.094Z,15.50
2022-08-18T01:51:39.514Z,15.60
2022-08-18T01:52:26.466Z,14.80
2022-08-18T01:53:20.687Z,14.90
2022-08-18T01:54:16.684Z,14.80
2022-08-18T01:55:11.748Z,15.40
2022-08-18T01:56:07.086Z,14.80
2022-08-18T01:57:02.153Z,14.60
2022-08-18T01:57:57.190Z,19.30
2022-08-18T01:58:52.261Z,15.70
2022-08-18T01:59:47.362Z,16.50
2022-08-18T02:00:42.441Z,15.90
2022-08-18T02:01:37.499Z,17.30
2022-08-18T02:02:33.541Z,14.00
2022-08-18T02:03:27.661Z,16.70
2022-08-18T02:04:37.982Z,16.80
2022-08-18T02:05:18.698Z,14.00
2022-08-18T02:06:14.636Z,15.30
2022-08-18T02:07:07.855Z,13.30
2022-08-18T02:08:02.930Z,18.00
2022-08-18T02:08:58.137Z,16.40
2022-08-18T02:09:53.143Z,19.60
2022-08-18T02:10:52.355Z,16.40
2022-08-18T02:11:47.365Z,17.60
2022-08-18T02:12:42.466Z,19.10
2022-08-18T02:13:37.514Z,20.80
2022-08-18T02:14:32.597Z,20.80
2022-08-18T02:15:27.588Z,20.30
2022-08-18T02:16:22.669Z,24.70
2022-08-18T02:17:17.707Z,23.30
2022-08-18T02:18:12.761Z,26.20
2022-08-18T02:19:07.812Z,27.30
2022-08-18T02:20:03.024Z,26.50
2022-08-18T02:20:58.074Z,28.60
2022-08-18T02:21:53.130Z,30.70
2022-08-18T02:22:48.164Z,30.90
2022-08-18T02:23:52.135Z,33.80
2022-08-18T02:24:40.172Z,30.10
2022-08-18T02:25:34.393Z,32.90
2022-08-18T02:26:30.261Z,33.40
2022-08-18T02:27:25.292Z,31.90
2022-08-18T02:28:20.751Z,31.50
2022-08-18T02:29:16.505Z,28.90
2022-08-18T02:30:11.643Z,30.70
2022-08-18T02:31:07.235Z,32.60
2022-08-18T02:32:02.509Z,28.90
2022-08-18T02:32:57.681Z,28.70
2022-08-18T02:33:53.562Z,30.00
2022-08-18T02:34:48.851Z,29.00
2022-08-18T02:35:44.841Z,23.60
2022-08-18T02:36:40.011Z,20.30
2022-08-18T02:37:35.319Z,20.40
2022-08-18T02:38:31.042Z,20.90
2022-08-18T02:39:26.484Z,21.80
2022-08-18T02:40:21.824Z,20.70
2022-08-18T02:41:17.919Z,21.80
2022-08-18T02:42:13.089Z,24.80
2022-08-18T02:43:08.945Z,21.20
2022-08-18T02:44:04.235Z,20.80
2022-08-18T02:44:59.539Z,21.80
2022-08-18T02:45:55.162Z,22.60
2022-08-18T02:46:50.451Z,19.50
2022-08-18T02:47:45.664Z,22.00
2022-08-18T02:48:40.807Z,20.90
2022-08-18T02:49:35.987Z,20.10
2022-08-18T02:50:31.037Z,17.90
2022-08-18T02:51:26.201Z,21.80
2022-08-18T02:52:21.199Z,18.30
2022-08-18T02:53:16.265Z,18.70
2022-08-18T02:54:11.305Z,18.60
2022-08-18T02:55:06.385Z,16.30
2022-08-18T02:56:01.441Z,21.00
2022-08-18T02:56:56.474Z,17.90
2022-08-18T02:57:51.615Z,19.80
2022-08-18T02:58:46.586Z,17.80
2022-08-18T02:59:41.624Z,16.40
2022-08-18T03:00:36.690Z,22.80
2022-08-18T03:01:31.891Z,16.30
2022-08-18T03:02:26.957Z,17.70
2022-08-18T03:03:21.964Z,20.20
2022-08-18T03:04:17.024Z,17.00
2022-08-18T03:05:15.476Z,21.20
2022-08-18T03:06:10.624Z,16.80
2022-08-18T03:07:05.964Z,18.10
2022-08-18T03:08:01.127Z,17.30
2022-08-18T03:08:57.368Z,15.20
2022-08-18T03:09:52.670Z,16.00
2022-08-18T03:10:47.837Z,14.90
2022-08-18T03:11:43.582Z,15.00
2022-08-18T03:12:38.194Z,14.40
2022-08-18T03:13:33.369Z,14.60
2022-08-18T03:14:28.667Z,17.10
2022-08-18T03:15:23.959Z,14.90
2022-08-18T03:16:19.028Z,16.50
2022-08-18T03:17:14.379Z,15.50
2022-08-18T03:18:09.579Z,14.80
2022-08-18T03:19:04.859Z,16.50
2022-08-18T03:20:00.177Z,14.20
2022-08-18T03:20:55.379Z,14.80
2022-08-18T03:21:51.234Z,14.90
2022-08-18T03:22:46.307Z,16.10
2022-08-18T03:23:41.550Z,16.80
2022-08-18T03:24:36.936Z,15.80
2022-08-18T03:25:32.117Z,14.80
2022-08-18T03:26:27.586Z,13.90
2022-08-18T03:27:22.765Z,14.10
2022-08-18T03:28:18.087Z,15.00
2022-08-18T03:29:13.380Z,16.40
2022-08-18T03:30:11.528Z,15.90
2022-08-18T03:31:03.792Z,13.80
2022-08-18T03:31:59.088Z,13.80
2022-08-18T03:32:54.284Z,15.30
2022-08-18T03:33:49.445Z,13.80
2022-08-18T03:34:44.654Z,14.40
2022-08-18T03:35:39.805Z,13.70
2022-08-18T03:36:35.101Z,15.80
2022-08-18T03:37:30.283Z,14.00
2022-08-18T03:38:25.607Z,16.10
2022-08-18T03:39:20.842Z,16.00
2022-08-18T03:40:16.063Z,15.90
2022-08-18T03:41:11.268Z,13.70
2022-08-18T03:42:06.432Z,12.40
2022-08-18T03:43:02.154Z,17.40
2022-08-18T03:43:56.989Z,13.50
2022-08-18T03:44:52.186Z,16.40
2022-08-18T03:45:47.457Z,13.40
2022-08-18T03:46:42.770Z,14.00
2022-08-18T03:47:37.972Z,12.40
2022-08-18T03:48:33.141Z,15.90
2022-08-18T03:49:28.427Z,13.60
2022-08-18T03:50:23.567Z,13.30
2022-08-18T03:51:18.820Z,14.70
2022-08-18T03:52:14.070Z,15.60
2022-08-18T03:53:09.337Z,14.70
2022-08-18T03:54:04.356Z,14.80
2022-08-18T03:54:59.382Z,15.40
2022-08-18T03:55:54.487Z,14.50
2022-08-18T03:56:52.658Z,13.90
2022-08-18T03:57:47.719Z,13.10
2022-08-18T03:58:42.924Z,14.30
2022-08-18T03:59:38.017Z,15.50
2022-08-18T04:00:33.109Z,14.30
2022-08-18T04:01:28.353Z,14.80
2022-08-18T04:02:23.591Z,16.10
2022-08-18T04:03:18.484Z,15.60
2022-08-18T04:04:13.603Z,15.70
2022-08-18T04:05:08.657Z,15.40
2022-08-18T04:06:03.740Z,14.90
2022-08-18T04:06:58.904Z,15.40
2022-08-18T04:07:53.825Z,14.70
2022-08-18T04:08:48.884Z,15.90
2022-08-18T04:09:43.995Z,14.30
2022-08-18T04:10:39.085Z,17.10
2022-08-18T04:11:36.586Z,15.10
2022-08-18T04:12:29.265Z,13.40
2022-08-18T04:13:24.362Z,15.10
2022-08-18T04:14:19.473Z,16.40
2022-08-18T04:15:14.488Z,15.10
2022-08-18T04:16:09.522Z,16.50
2022-08-18T04:17:04.545Z,15.00
2022-08-18T04:18:03.828Z,19.70
2022-08-18T04:18:54.651Z,19.10
2022-08-18T04:19:49.691Z,18.20
2022-08-18T04:20:59.483Z,20.40
2022-08-18T04:21:40.834Z,17.30
2022-08-18T04:22:35.090Z,16.40
2022-08-18T04:23:30.412Z,17.40
2022-08-18T04:24:28.226Z,17.40
2022-08-18T04:25:21.030Z,18.30
2022-08-18T04:26:19.337Z,16.50
2022-08-18T04:27:11.901Z,18.00
2022-08-18T04:28:07.107Z,15.00
2022-08-18T04:29:02.430Z,17.40
2022-08-18T04:29:57.784Z,16.30
2022-08-18T04:30:53.107Z,16.40
2022-08-18T04:31:48.460Z,17.70
2022-08-18T04:32:43.830Z,16.40
2022-08-18T04:33:39.166Z,16.10
2022-08-18T04:34:34.627Z,17.00
2022-08-18T04:35:29.837Z,15.90
2022-08-18T04:36:25.184Z,15.90
2022-08-18T04:37:20.537Z,14.90
2022-08-18T04:38:15.865Z,17.60
2022-08-18T04:39:11.196Z,17.30
2022-08-18T04:40:06.617Z,17.90
2022-08-18T04:41:01.979Z,15.30
2022-08-18T04:41:57.364Z,15.60
2022-08-18T04:42:52.804Z,16.60
2022-08-18T04:43:48.166Z,15.90
2022-08-18T04:44:43.687Z,16.00
2022-08-18T04:45:38.973Z,18.30
2022-08-18T04:46:34.358Z,14.70
2022-08-18T04:47:29.798Z,17.20
2022-08-18T04:48:25.173Z,16.50
2022-08-18T04:49:20.562Z,16.50
2022-08-18T04:50:15.959Z,16.30
2022-08-18T04:51:11.303Z,18.30
2022-08-18T04:52:37.357Z,16.10
2022-08-18T04:53:07.404Z,15.40
2022-08-18T04:54:01.753Z,16.60
2022-08-18T04:54:57.172Z,18.70
2022-08-18T04:55:52.644Z,17.80
2022-08-18T04:56:48.153Z,15.40
2022-08-18T04:57:43.200Z,14.20
2022-08-18T04:58:38.304Z,16.30
2022-08-18T04:59:33.360Z,17.00
2022-08-18T05:00:28.382Z,15.70
2022-08-18T05:01:23.494Z,16.10
2022-08-18T05:02:18.523Z,17.60
2022-08-18T05:03:13.580Z,13.80
2022-08-18T05:04:08.608Z,13.20
2022-08-18T05:05:03.656Z,15.10
2022-08-18T05:05:58.702Z,15.50
2022-08-18T05:06:53.997Z,14.30
2022-08-18T05:07:49.431Z,13.00
2022-08-18T05:08:45.041Z,14.00
2022-08-18T05:09:41.265Z,16.30
2022-08-18T05:10:35.901Z,13.90
2022-08-18T05:11:31.390Z,13.30
2022-08-18T05:12:26.958Z,12.10
2022-08-18T05:13:22.447Z,13.30
2022-08-18T05:14:17.902Z,13.30
2022-08-18T05:15:13.305Z,11.00
2022-08-18T05:16:11.664Z,14.90
2022-08-18T05:17:04.397Z,13.40
2022-08-18T05:17:59.831Z,12.30
2022-08-18T05:18:55.591Z,14.40
2022-08-18T05:19:50.885Z,14.00
2022-08-18T05:20:46.293Z,13.70
2022-08-18T05:21:41.734Z,14.60
2022-08-18T05:22:36.778Z,15.10
2022-08-18T05:23:31.893Z,15.10
2022-08-18T05:24:30.798Z,16.30
2022-08-18T05:25:22.972Z,16.80
2022-08-18T05:26:17.072Z,14.90
2022-08-18T05:27:12.107Z,17.30
2022-08-18T05:28:07.123Z,16.80
2022-08-18T05:29:18.057Z,15.20
2022-08-18T05:29:58.215Z,14.40
2022-08-18T05:30:52.452Z,15.00
2022-08-18T05:31:48.820Z,16.50
2022-08-18T05:32:49.041Z,17.20
2022-08-18T05:33:40.626Z,20.80
2022-08-18T05:34:35.109Z,16.70
2022-08-18T05:35:30.669Z,16.60
2022-08-18T05:36:26.099Z,16.40
2022-08-18T05:37:21.580Z,15.10
2022-08-18T05:38:17.138Z,16.10
2022-08-18T05:39:12.568Z,17.50
2022-08-18T05:40:11.305Z,16.30
2022-08-18T05:41:03.412Z,19.10
2022-08-18T05:41:59.162Z,18.60
2022-08-18T05:42:54.490Z,16.70
2022-08-18T05:43:49.908Z,16.80
2022-08-18T05:44:45.390Z,16.90
2022-08-18T05:45:40.386Z,17.40
2022-08-18T05:46:35.437Z,17.30
2022-08-18T05:47:30.515Z,17.10
2022-08-18T05:48:25.533Z,19.70
2022-08-18T05:49:20.595Z,19.20
2022-08-18T05:50:15.646Z,19.20
2022-08-18T05:51:10.721Z,19.50
2022-08-18T05:52:05.761Z,20.00
2022-08-18T05:53:00.795Z,18.40
2022-08-18T05:53:55.796Z,20.50
2022-08-18T05:54:50.847Z,19.10
2022-08-18T05:55:47.896Z,19.50
2022-08-18T05:56:41.036Z,18.70
2022-08-18T05:57:36.093Z,20.30
2022-08-18T05:58:33.248Z,23.90
2022-08-18T05:59:26.173Z,25.20
2022-08-18T06:00:21.216Z,18.40
2022-08-18T06:02:40.133Z,18.90
2022-08-18T06:03:45.541Z,18.90
2022-08-18T06:04:31.630Z,22.40
2022-08-18T06:05:26.127Z,22.00
2022-08-18T06:06:21.567Z,21.30
2022-08-18T06:07:17.154Z,18.60
2022-08-18T06:08:12.469Z,24.20
2022-08-18T06:09:07.897Z,20.30
2022-08-18T06:10:03.350Z,24.80
2022-08-18T06:10:58.784Z,20.40
2022-08-18T06:11:54.184Z,19.60
2022-08-18T06:12:49.664Z,20.20
2022-08-18T06:13:45.222Z,20.90
2022-08-18T06:14:40.644Z,20.20
2022-08-18T06:15:36.114Z,21.00
2022-08-18T06:16:31.524Z,21.30
2022-08-18T06:17:27.082Z,21.90
2022-08-18T06:18:22.428Z,25.10
2022-08-18T06:19:17.833Z,21.60
2022-08-18T06:20:13.308Z,23.10
2022-08-18T06:21:08.750Z,22.10
2022-08-18T06:22:04.176Z,21.60
2022-08-18T06:22:59.626Z,19.40
2022-08-18T06:23:55.188Z,21.20
2022-08-18T06:24:50.617Z,21.80
2022-08-18T06:25:46.146Z,23.40
2022-08-18T06:26:41.718Z,24.10
2022-08-18T06:27:37.160Z,22.90
2022-08-18T06:28:32.680Z,22.80
2022-08-18T06:29:28.253Z,21.60
2022-08-18T06:30:23.685Z,21.80
2022-08-18T06:31:19.148Z,22.30
2022-08-18T06:32:14.572Z,22.10
2022-08-18T06:33:10.010Z,21.70
2022-08-18T06:34:05.475Z,21.30
2022-08-18T06:35:00.900Z,22.80
2022-08-18T06:35:56.465Z,20.80
2022-08-18T06:36:51.774Z,22.60
2022-08-18T06:37:47.207Z,21.80
2022-08-18T06:38:45.369Z,22.60
2022-08-18T06:39:38.179Z,24.10
2022-08-18T06:40:33.615Z,24.60
2022-08-18T06:41:40.853Z,23.90
2022-08-18T06:42:25.525Z,24.00
2022-08-18T06:43:19.904Z,23.60
2022-08-18T06:44:15.474Z,25.50
2022-08-18T06:45:10.901Z,23.70
2022-08-18T06:46:06.366Z,23.70
2022-08-18T06:47:01.770Z,23.60
2022-08-18T06:47:57.182Z,25.20
2022-08-18T06:48:52.711Z,20.80
2022-08-18T06:49:48.185Z,20.00
2022-08-18T06:50:43.761Z,23.10
2022-08-18T06:51:40.935Z,22.30
2022-08-18T06:52:34.564Z,23.70
2022-08-18T06:53:30.154Z,22.00
2022-08-18T06:54:25.623Z,20.30
2022-08-18T06:55:21.050Z,24.70
2022-08-18T06:56:26.351Z,27.00
2022-08-18T06:57:12.946Z,27.90
2022-08-18T06:58:07.445Z,27.70
2022-08-18T06:59:02.884Z,28.70
2022-08-18T06:59:58.329Z,26.90
2022-08-18T07:00:54.998Z,27.10
2022-08-18T07:01:49.307Z,26.00
2022-08-18T07:02:44.919Z,25.90
2022-08-18T07:03:41.429Z,26.10
2022-08-18T07:04:36.892Z,25.20
2022-08-18T07:05:32.488Z,26.70
2022-08-18T07:06:28.058Z,35.70
2022-08-18T07:07:23.387Z,34.80
2022-08-18T07:08:18.899Z,34.30
2022-08-18T07:09:14.274Z,32.70
2022-08-18T07:10:09.744Z,29.40
2022-08-18T07:11:05.174Z,30.50
2022-08-18T07:12:00.775Z,36.00
2022-08-18T07:12:56.115Z,36.90
2022-08-18T07:14:03.717Z,36.20
2022-08-18T07:14:48.030Z,35.50
2022-08-18T07:15:42.571Z,34.40
2022-08-18T07:17:43.707Z,32.40
2022-08-18T07:18:28.804Z,32.80
2022-08-18T07:19:22.835Z,31.40
2022-08-18T07:20:17.884Z,32.30
2022-08-18T07:21:12.973Z,29.20
2022-08-18T07:22:08.092Z,27.50
2022-08-18T07:23:08.363Z,24.00
2022-08-18T07:24:21.415Z,25.70
2022-08-18T07:24:54.312Z,24.20
2022-08-18T07:25:48.390Z,24.80
2022-08-18T07:26:45.053Z,24.60
2022-08-18T07:27:40.533Z,22.50
2022-08-18T07:28:36.010Z,24.30
2022-08-18T07:29:31.316Z,22.80
2022-08-18T07:30:26.829Z,24.90
2022-08-18T07:31:22.248Z,24.60
2022-08-18T07:32:20.981Z,22.00
2022-08-18T07:33:13.063Z,23.70
2022-08-18T07:34:08.545Z,24.80
2022-08-18T07:35:04.258Z,19.40
2022-08-18T07:35:59.677Z,21.80
2022-08-18T07:36:55.087Z,22.10
2022-08-18T07:37:50.706Z,23.00
2022-08-18T07:38:45.938Z,20.90
2022-08-18T07:39:44.115Z,18.90
2022-08-18T07:40:36.957Z,21.20
2022-08-18T07:41:31.081Z,18.90
2022-08-18T07:42:37.162Z,17.80
2022-08-18T07:43:22.201Z,19.90
2022-08-18T07:44:16.196Z,19.00
2022-08-18T07:45:11.256Z,20.10
2022-08-18T07:46:06.375Z,21.20
2022-08-18T07:47:01.418Z,22.90
2022-08-18T07:47:56.486Z,20.80
2022-08-18T07:48:52.312Z,23.50
2022-08-18T07:50:16.622Z,20.40
2022-08-18T07:50:58.590Z,22.40
2022-08-18T07:51:37.799Z,25.90
2022-08-18T07:52:44.082Z,25.00
2022-08-18T07:53:29.516Z,26.40
2022-08-18T07:54:48.218Z,25.80
2022-08-18T07:55:20.526Z,23.70
2022-08-18T07:56:14.885Z,22.80
2022-08-18T07:57:10.309Z,23.60
2022-08-18T07:58:05.872Z,22.80
2022-08-18T07:59:01.192Z,21.20
2022-08-18T07:59:56.592Z,22.30
2022-08-18T08:01:00.147Z,22.00
2022-08-18T08:01:48.548Z,22.40
2022-08-18T08:02:42.887Z,21.80
2022-08-18T08:03:38.292Z,19.70
2022-08-18T08:04:33.744Z,20.40
2022-08-18T08:05:29.336Z,19.40
2022-08-18T08:06:24.344Z,18.10
2022-08-18T08:07:26.515Z,19.00
2022-08-18T08:08:15.421Z,17.90
2022-08-18T08:09:09.498Z,16.50
2022-08-18T08:10:04.653Z,17.10
2022-08-18T08:10:59.890Z,18.00
2022-08-18T08:11:54.980Z,16.90
2022-08-18T08:12:50.056Z,17.40
2022-08-18T08:13:55.361Z,17.50
2022-08-18T08:14:41.250Z,17.70
2022-08-18T08:15:36.885Z,17.20
2022-08-18T08:16:32.026Z,15.90
2022-08-18T08:17:26.976Z,14.50
2022-08-18T08:18:22.117Z,16.10
2022-08-18T08:19:17.199Z,15.20
2022-08-18T08:20:12.337Z,13.70
2022-08-18T08:21:07.440Z,14.70
2022-08-18T08:22:02.946Z,14.80
2022-08-18T08:22:58.350Z,15.10
2022-08-18T08:23:53.752Z,13.10
2022-08-18T08:24:49.186Z,14.50
2022-08-18T08:25:47.202Z,16.10
2022-08-18T08:26:40.173Z,13.30
2022-08-18T08:27:35.594Z,14.20
2022-08-18T08:28:31.024Z,14.70
2022-08-18T08:29:26.411Z,11.70
2022-08-18T08:30:21.927Z,13.70
2022-08-18T08:32:13.459Z,11.00
2022-08-18T08:33:07.545Z,10.10
2022-08-18T08:34:05.852Z,12.20
2022-08-18T08:34:57.635Z,10.30
2022-08-18T08:35:52.678Z,10.50
2022-08-18T08:36:47.653Z,10.30
2022-08-18T08:37:42.705Z,11.00
2022-08-18T08:38:43.058Z,10.60
2022-08-18T08:39:35.539Z,9.90
2022-08-18T08:40:29.551Z,9.90
2022-08-18T08:41:24.619Z,9.80
2022-08-18T08:42:30.570Z,9.90
2022-08-18T08:43:16.834Z,10.90
2022-08-18T08:44:11.328Z,9.00
2022-08-18T08:45:06.711Z,8.60
2022-08-18T08:46:02.374Z,8.90
2022-08-18T08:46:57.940Z,11.00
2022-08-18T08:47:53.543Z,9.00
2022-08-18T08:48:49.065Z,8.90
2022-08-18T08:49:44.601Z,7.60
2022-08-18T08:50:40.161Z,8.70
2022-08-18T08:51:35.582Z,9.00
2022-08-18T08:52:30.992Z,8.10
2022-08-18T08:53:26.531Z,9.70
2022-08-18T08:54:22.108Z,8.80
2022-08-18T08:55:17.199Z,9.30
2022-08-18T08:56:12.356Z,8.80
2022-08-18T08:57:08.927Z,8.40
2022-08-18T08:58:02.447Z,8.10
2022-08-18T08:58:57.680Z,8.10
2022-08-18T08:59:52.678Z,8.60
2022-08-18T09:00:47.669Z,7.10
2022-08-18T09:01:43.150Z,8.30
2022-08-18T09:02:47.956Z,7.80
2022-08-18T09:03:34.272Z,7.80
2022-08-18T09:04:28.350Z,7.40
2022-08-18T09:05:24.130Z,7.60
2022-08-18T09:06:19.792Z,7.80
2022-08-18T09:07:15.224Z,8.60
2022-08-18T09:08:10.732Z,7.90
2022-08-18T09:09:06.126Z,8.30
2022-08-18T09:10:01.653Z,8.50
2022-08-18T09:10:57.032Z,8.00
2022-08-18T09:11:52.565Z,8.70
2022-08-18T09:12:48.080Z,8.30
2022-08-18T09:13:44.636Z,8.50
2022-08-18T09:14:40.135Z,8.40
2022-08-18T09:15:35.637Z,8.10
2022-08-18T09:16:31.229Z,8.40
2022-08-18T09:17:33.996Z,8.30
2022-08-18T09:18:22.575Z,8.30
2022-08-18T09:19:16.650Z,8.00
2022-08-18T09:20:11.771Z,7.80
2022-08-18T09:21:06.764Z,8.00
2022-08-18T09:22:01.767Z,8.10
2022-08-18T09:22:56.915Z,8.90
2022-08-18T09:23:51.911Z,7.50
2022-08-18T09:24:47.033Z,7.30
2022-08-18T09:25:42.153Z,8.40
2022-08-18T09:26:39.197Z,7.60
2022-08-18T09:27:43.567Z,8.00
2022-08-18T09:28:29.134Z,7.70
2022-08-18T09:29:23.607Z,7.90
2022-08-18T09:30:18.943Z,7.40
2022-08-18T09:31:14.531Z,7.90
2022-08-18T09:32:11.743Z,8.00
2022-08-18T09:33:04.638Z,7.00
2022-08-18T09:34:06.719Z,7.70
2022-08-18T09:34:55.710Z,6.10
2022-08-18T09:36:45.762Z,6.90
2022-08-18T09:37:39.877Z,9.20
2022-08-18T09:38:35.021Z,6.30
2022-08-18T09:39:30.696Z,6.10
2022-08-18T09:41:22.548Z,6.10
2022-08-18T09:42:16.950Z,6.40
2022-08-18T09:43:12.442Z,6.30
2022-08-18T09:44:07.798Z,6.10
2022-08-18T09:45:02.847Z,5.60
2022-08-18T09:45:57.866Z,5.40
2022-08-18T09:46:52.863Z,5.50
2022-08-18T09:47:49.577Z,6.30
2022-08-18T09:48:44.678Z,5.90
2022-08-18T09:49:39.769Z,5.60
2022-08-18T09:50:34.905Z,5.60
2022-08-18T09:51:30.448Z,5.90
2022-08-18T09:52:25.881Z,5.50
2022-08-18T09:53:21.413Z,5.10
2022-08-18T09:54:21.322Z,5.10
2022-08-18T09:55:12.635Z,5.60
2022-08-18T09:56:08.174Z,5.20
2022-08-18T09:57:03.700Z,5.50
2022-08-18T09:57:59.239Z,5.00
2022-08-18T09:58:54.708Z,5.10
2022-08-18T09:59:50.360Z,5.40
2022-08-18T10:00:45.938Z,5.30
2022-08-18T10:01:41.056Z,5.00
2022-08-18T10:02:36.893Z,4.80
2022-08-18T10:03:31.742Z,4.90
2022-08-18T10:04:29.206Z,4.80
2022-08-18T10:05:21.241Z,5.20
2022-08-18T10:06:16.198Z,5.70
2022-08-18T10:07:11.277Z,5.60
2022-08-18T10:08:06.267Z,5.20
2022-08-18T10:09:01.283Z,4.90
2022-08-18T10:09:56.386Z,5.00
2022-08-18T10:10:59.486Z,5.10
2022-08-18T10:11:50.928Z,4.70
2022-08-18T10:12:44.011Z,5.10
2022-08-18T10:13:40.997Z,5.00
2022-08-18T10:14:36.006Z,4.90
2022-08-18T10:15:33.739Z,5.50
2022-08-18T10:16:28.069Z,4.70
2022-08-18T10:17:23.509Z,5.70
2022-08-18T10:18:17.153Z,4.90
2022-08-18T10:19:12.587Z,4.70
2022-08-18T10:20:08.953Z,4.70
2022-08-18T10:21:05.468Z,6.60
2022-08-18T10:21:59.911Z,4.60
2022-08-18T10:22:55.303Z,6.20
2022-08-18T10:24:02.708Z,4.70
2022-08-18T10:24:46.848Z,5.60
2022-08-18T10:25:41.066Z,6.80
2022-08-18T10:26:35.974Z,5.30
2022-08-18T10:27:31.042Z,5.30
2022-08-18T10:28:26.092Z,6.00
2022-08-18T10:29:21.204Z,5.20
2022-08-18T10:30:16.161Z,4.70
2022-08-18T10:31:11.177Z,5.60
2022-08-18T10:32:06.260Z,4.10
2022-08-18T10:33:10.920Z,5.10
2022-08-18T10:33:59.530Z,4.40
2022-08-18T10:34:53.636Z,4.40
2022-08-18T10:35:48.775Z,4.80
2022-08-18T10:36:43.743Z,4.70
2022-08-18T10:37:38.791Z,4.70
2022-08-18T10:38:33.900Z,5.40
2022-08-18T10:39:29.467Z,4.50
2022-08-18T10:40:26.457Z,4.80
2022-08-18T10:41:20.443Z,4.30
2022-08-18T10:42:15.909Z,4.40
2022-08-18T10:43:45.369Z,4.50
2022-08-18T10:44:27.815Z,8.80
2022-08-18T10:45:06.605Z,5.00
2022-08-18T10:46:24.660Z,4.70
2022-08-18T10:46:54.170Z,4.60
2022-08-18T10:47:49.059Z,4.80
2022-08-18T10:48:44.549Z,5.30
2022-08-18T10:49:46.713Z,4.50
2022-08-18T10:50:36.092Z,5.00
2022-08-18T10:51:30.191Z,5.10
2022-08-18T10:52:26.314Z,4.70
2022-08-18T10:54:18.367Z,4.70
2022-08-18T10:55:10.513Z,4.50
2022-08-18T10:56:05.531Z,5.20
2022-08-18T10:57:02.551Z,5.00
2022-08-18T10:57:58.076Z,6.20
2022-08-18T10:58:53.600Z,5.10
2022-08-18T10:59:54.632Z,4.70
2022-08-18T11:00:45.678Z,5.30
2022-08-18T11:01:40.217Z,6.10
2022-08-18T11:02:37.025Z,5.00
2022-08-18T11:03:52.170Z,4.50
2022-08-18T11:04:34.018Z,4.80
2022-08-18T11:05:23.489Z,4.70
2022-08-18T11:06:21.690Z,4.70
2022-08-18T11:07:13.463Z,5.00
2022-08-18T11:09:05.423Z,4.30
2022-08-18T11:10:28.511Z,4.70
2022-08-18T11:11:27.456Z,5.10
2022-08-18T11:12:46.239Z,4.90
2022-08-18T11:13:40.330Z,5.50
2022-08-18T11:14:35.383Z,5.30
2022-08-18T11:15:35.827Z,4.40
2022-08-18T11:16:26.520Z,4.90
2022-08-18T11:17:20.556Z,4.70
2022-08-18T11:18:15.623Z,4.50
2022-08-18T11:19:10.753Z,4.70
2022-08-18T11:20:07.953Z,4.60
2022-08-18T11:21:03.486Z,4.60
2022-08-18T11:21:59.873Z,5.40
2022-08-18T11:22:55.085Z,4.60
2022-08-18T11:23:50.013Z,4.10
2022-08-18T11:24:46.366Z,4.60
2022-08-18T11:25:40.473Z,5.50
2022-08-18T11:26:35.610Z,7.20
2022-08-18T11:27:30.673Z,7.50
2022-08-18T11:28:30.154Z,4.70
2022-08-18T11:29:21.822Z,5.20
2022-08-18T11:30:17.698Z,5.20
2022-08-18T11:31:10.930Z,5.00
2022-08-18T11:32:05.937Z,5.70
2022-08-18T11:33:01.349Z,5.10
2022-08-18T11:33:56.182Z,5.20
2022-08-18T11:34:51.215Z,5.10
2022-08-18T11:35:46.935Z,5.80
2022-08-18T11:36:49.959Z,5.10
2022-08-18T11:38:34.290Z,4.80
2022-08-18T11:39:37.718Z,5.10
2022-08-18T11:41:20.189Z,4.40
2022-08-18T11:42:15.820Z,4.70
2022-08-18T11:43:12.117Z,5.10
2022-08-18T11:44:06.545Z,5.50
2022-08-18T11:45:02.063Z,5.40
2022-08-18T11:45:57.660Z,4.80
2022-08-18T11:46:53.148Z,5.10
2022-08-18T11:47:48.823Z,4.60
2022-08-18T11:48:51.829Z,6.60
2022-08-18T11:49:40.736Z,5.20
2022-08-18T11:50:35.309Z,5.30
2022-08-18T11:51:30.793Z,5.70
2022-08-18T11:53:23.999Z,4.80
2022-08-18T11:54:17.542Z,6.70
2022-08-18T11:56:13.551Z,4.80
2022-08-18T11:57:04.168Z,5.20
2022-08-18T11:58:00.710Z,6.00
2022-08-18T11:58:55.321Z,4.90
2022-08-18T11:59:55.127Z,5.20
2022-08-18T12:00:47.509Z,4.80
2022-08-18T12:01:42.539Z,5.20
2022-08-18T12:02:37.547Z,5.10
2022-08-18T12:03:33.089Z,5.20
2022-08-18T12:04:29.006Z,5.20
2022-08-18T12:05:24.024Z,4.80
2022-08-18T12:06:19.939Z,5.40
2022-08-18T12:07:14.973Z,6.40
2022-08-18T12:08:15.471Z,5.30
2022-08-18T12:09:07.014Z,6.00
2022-08-18T12:10:17.262Z,5.00
2022-08-18T12:10:57.987Z,5.70